Time;durP1;ratioP1;P1;durP2;ratioP2;P2;SDS_P1;SDS_P2;PMS_P1;PMS_P2;Temp;Humidity;BMP_temperature;BMP_pressure;BME280_temperature;BME280_humidity;BME280_pressure;Samples;Min_cycle;Max_cycle;Signal;HPM_P1;HPM_P2
2023/07/27 00:00:45;;;;;;;5.30;2.92;;;;;;;14.19;72.68;101071.09;7396532;19;20304;-71
2023/07/27 00:03:14;;;;;;;4.00;2.80;;;;;;;14.18;72.52;101063.16;7397350;19;19933;-71
2023/07/27 00:05:42;;;;;;;5.85;3.25;;;;;;;14.17;72.77;101062.31;7397065;19;19957;-70
2023/07/27 00:08:11;;;;;;;5.25;3.22;;;;;;;14.16;72.71;101055.22;7398621;19;19939;-71
2023/07/27 00:10:40;;;;;;;6.03;3.20;;;;;;;14.16;72.42;101062.50;7398993;19;19914;-71
2023/07/27 00:13:08;;;;;;;7.28;3.10;;;;;;;14.13;72.98;101061.03;7401826;19;19926;-71
2023/07/27 00:15:40;;;;;;;5.60;3.05;;;;;;;14.12;73.09;101053.91;7401539;19;19930;-70
2023/07/27 00:18:09;;;;;;;6.10;3.53;;;;;;;14.13;72.96;101049.34;7405417;19;19919;-70
2023/07/27 00:20:37;;;;;;;7.05;3.00;;;;;;;14.10;73.15;101045.16;7405131;19;19919;-71
2023/07/27 00:23:06;;;;;;;6.20;3.30;;;;;;;14.10;72.80;101039.75;7405116;19;19952;-71
2023/07/27 00:25:34;;;;;;;6.47;3.03;;;;;;;14.10;73.00;101042.47;7404745;19;19922;-70
2023/07/27 00:28:03;;;;;;;4.40;2.60;;;;;;;14.07;73.06;101037.41;7404865;19;20317;-71
2023/07/27 00:30:32;;;;;;;5.95;3.10;;;;;;;14.02;73.15;101029.06;7401964;19;20261;-70
2023/07/27 00:33:03;;;;;;;5.47;3.90;;;;;;;13.99;73.46;101034.84;7404899;19;19927;-71
2023/07/27 00:35:31;;;;;;;7.40;3.20;;;;;;;13.99;73.73;101029.44;7405380;19;20325;-71
2023/07/27 00:38:00;;;;;;;8.13;3.42;;;;;;;13.98;73.48;101038.56;7401709;19;19947;-71
2023/07/27 00:40:28;;;;;;;8.85;3.58;;;;;;;13.95;73.52;101026.28;7405111;19;19930;-71
2023/07/27 00:42:57;;;;;;;5.63;3.10;;;;;;;13.93;73.49;101022.94;7403755;19;19918;-70
2023/07/27 00:45:27;;;;;;;7.20;3.22;;;;;;;13.92;73.75;101025.84;7400723;19;20358;-71
2023/07/27 00:47:55;;;;;;;5.70;3.80;;;;;;;13.91;74.04;101021.44;7402525;19;19958;-70
2023/07/27 00:50:26;;;;;;;5.95;3.20;;;;;;;13.91;74.13;101016.03;7404194;19;19942;-71
2023/07/27 00:52:55;;;;;;;7.85;3.08;;;;;;;13.90;73.42;101017.06;7404490;19;19918;-71
2023/07/27 00:55:24;;;;;;;6.30;3.55;;;;;;;13.88;73.99;101019.13;7397321;19;19923;-71
2023/07/27 00:57:53;;;;;;;6.32;3.25;;;;;;;13.85;73.78;101012.22;7400134;19;19926;-70
2023/07/27 01:00:22;;;;;;;8.18;3.58;;;;;;;13.83;74.01;101011.59;7399191;19;20274;-70
2023/07/27 01:02:50;;;;;;;5.18;3.53;;;;;;;13.80;74.18;101001.16;7404102;19;19930;-70
2023/07/27 01:05:19;;;;;;;7.32;3.28;;;;;;;13.81;74.11;101001.97;7403061;19;19922;-70
2023/07/27 01:07:51;;;;;;;6.80;3.28;;;;;;;13.79;74.35;101001.34;7402791;19;19926;-70
2023/07/27 01:10:20;;;;;;;6.68;3.70;;;;;;;13.76;73.99;100988.19;7402630;19;19943;-71
2023/07/27 01:12:55;;;;;;;5.22;3.15;;;;;;;13.73;74.16;100986.69;7403732;19;20013;-71
2023/07/27 01:15:29;;;;;;;7.85;3.78;;;;;;;13.70;74.15;100984.41;7402550;19;19930;-71
2023/07/27 01:18:04;;;;;;;6.53;4.25;;;;;;;13.67;74.55;100978.53;7400681;19;19918;-71
2023/07/27 01:20:39;;;;;;;7.15;4.18;;;;;;;13.63;74.89;100980.81;7398920;19;19922;-71
2023/07/27 01:23:35;;;;;;;7.93;3.83;;;;;;;13.59;75.19;100985.75;7399478;19;20386;-71
2023/07/27 01:26:38;;;;;;;7.93;3.90;;;;;;;13.55;75.42;100976.34;7399053;19;19967;-71
2023/07/27 01:29:15;;;;;;;8.18;3.55;;;;;;;13.60;74.73;100973.88;7398827;19;20318;-70
2023/07/27 01:31:48;;;;;;;8.63;3.85;;;;;;;13.60;75.17;100971.19;7401504;19;20452;-69
2023/07/27 01:34:20;;;;;;;7.57;4.32;;;;;;;13.60;75.24;100965.75;7398300;19;19930;-70
2023/07/27 01:36:57;;;;;;;10.73;4.03;;;;;;;13.63;74.86;100956.44;7402330;19;19926;-70
2023/07/27 01:39:27;;;;;;;7.10;4.07;;;;;;;13.68;74.66;100958.56;7401967;19;20471;-70
2023/07/27 01:41:56;;;;;;;7.35;4.45;;;;;;;13.69;74.57;100954.78;7399734;19;19926;-71
2023/07/27 01:44:28;;;;;;;8.68;4.43;;;;;;;13.74;74.87;100947.78;7397771;19;19918;-71
2023/07/27 01:47:02;;;;;;;6.10;3.25;;;;;;;13.75;74.76;100944.03;7398298;19;21930;-71
2023/07/27 01:49:32;;;;;;;7.35;3.83;;;;;;;13.76;74.63;100936.75;7400532;19;19939;-71
2023/07/27 01:52:01;;;;;;;7.07;3.75;;;;;;;13.79;74.58;100934.50;7400078;19;20393;-71
2023/07/27 01:54:30;;;;;;;7.85;4.03;;;;;;;13.82;75.07;100933.25;7398304;19;19922;-71
2023/07/27 01:57:00;;;;;;;7.03;3.70;;;;;;;13.84;74.88;100937.44;7402067;19;19919;-71
2023/07/27 01:59:29;;;;;;;8.48;3.40;;;;;;;13.87;74.93;100938.91;7398834;19;19938;-71
2023/07/27 02:02:01;;;;;;;6.22;4.13;;;;;;;13.87;75.16;100931.63;7400139;19;20570;-71
2023/07/27 02:04:30;;;;;;;8.70;3.45;;;;;;;13.88;74.74;100935.19;7400524;19;20030;-71
2023/07/27 02:06:59;;;;;;;6.70;3.47;;;;;;;13.88;74.78;100927.91;7401232;19;20267;-71
2023/07/27 02:09:28;;;;;;;6.68;3.42;;;;;;;13.90;74.78;100920.41;7399726;19;20278;-70
2023/07/27 02:12:00;;;;;;;11.27;4.10;;;;;;;13.90;74.56;100920.41;7401709;19;19926;-71
2023/07/27 02:14:39;;;;;;;7.90;3.40;;;;;;;13.88;75.64;100916.22;7401093;19;19927;-71
2023/07/27 02:17:15;;;;;;;10.70;4.40;;;;;;;13.87;75.28;100909.97;7401832;19;20006;-71
2023/07/27 02:19:47;;;;;;;10.18;3.60;;;;;;;13.90;75.03;100914.13;7399276;19;19919;-70
2023/07/27 02:22:17;;;;;;;6.53;3.78;;;;;;;13.90;75.05;100908.72;7401862;19;19915;-71
2023/07/27 02:24:46;;;;;;;6.10;3.67;;;;;;;13.90;75.30;100903.31;7400086;19;19926;-71
2023/07/27 02:27:14;;;;;;;6.57;3.78;;;;;;;13.91;75.38;100902.28;7401918;19;19944;-72
2023/07/27 02:29:43;;;;;;;6.53;3.80;;;;;;;13.93;75.24;100901.06;7400949;19;19926;-71
2023/07/27 02:32:14;;;;;;;7.50;3.75;;;;;;;13.94;75.27;100893.75;7400775;19;19919;-71
2023/07/27 02:34:43;;;;;;;5.57;3.25;;;;;;;13.95;75.17;100890.00;7397733;19;19934;-70
2023/07/27 02:37:11;;;;;;;7.38;3.95;;;;;;;13.96;75.51;100892.53;7401164;19;19910;-71
2023/07/27 02:39:40;;;;;;;7.10;3.85;;;;;;;13.97;75.44;100888.78;7401056;19;19922;-71
2023/07/27 02:42:08;;;;;;;7.15;3.50;;;;;;;13.98;75.41;100886.91;7401391;19;19918;-71
2023/07/27 02:44:37;;;;;;;8.27;3.35;;;;;;;13.97;75.51;100887.97;7400075;19;19921;-71
2023/07/27 02:47:06;;;;;;;6.53;3.67;;;;;;;13.98;75.63;100886.91;7395987;19;19960;-71
2023/07/27 02:49:37;;;;;;;5.88;3.38;;;;;;;14.00;75.88;100876.72;7398739;19;20400;-71
2023/07/27 02:52:06;;;;;;;5.45;3.70;;;;;;;14.00;75.79;100871.28;7401306;19;19922;-71
2023/07/27 02:54:35;;;;;;;6.50;4.07;;;;;;;13.99;75.64;100873.16;7397526;19;20008;-71
2023/07/27 02:57:03;;;;;;;6.63;3.72;;;;;;;13.97;75.67;100869.00;7400203;19;20393;-71
2023/07/27 02:59:32;;;;;;;6.38;3.10;;;;;;;13.97;76.01;100877.97;7398457;19;20317;-71
2023/07/27 03:02:01;;;;;;;7.70;3.80;;;;;;;13.96;75.98;100867.31;7400150;19;19923;-70
2023/07/27 03:04:29;;;;;;;8.63;4.00;;;;;;;13.97;76.14;100871.72;7401569;19;19922;-71
2023/07/27 03:07:00;;;;;;;9.02;4.28;;;;;;;13.94;76.15;100859.38;7400231;19;19960;-70
2023/07/27 03:09:29;;;;;;;6.80;3.70;;;;;;;13.91;76.32;100851.66;7399963;19;19922;-71
2023/07/27 03:11:57;;;;;;;7.13;3.65;;;;;;;13.90;76.48;100846.44;7400079;19;19938;-70
2023/07/27 03:14:26;;;;;;;7.68;4.32;;;;;;;13.90;76.83;100846.44;7398513;19;19939;-70
2023/07/27 03:16:55;;;;;;;9.75;4.18;;;;;;;13.90;76.82;100843.72;7398711;19;20311;-70
2023/07/27 03:19:23;;;;;;;8.18;3.53;;;;;;;13.91;76.81;100837.28;7397818;19;19926;-71
2023/07/27 03:21:53;;;;;;;7.43;3.92;;;;;;;13.92;76.34;100831.69;7396062;19;20265;-71
2023/07/27 03:24:24;;;;;;;6.95;4.63;;;;;;;13.94;76.45;100836.88;7397377;19;19939;-70
2023/07/27 03:26:52;;;;;;;7.38;3.35;;;;;;;13.95;76.88;100830.44;7397389;19;19926;-70
2023/07/27 03:29:21;;;;;;;8.10;4.45;;;;;;;13.95;76.06;100830.44;7397779;19;20332;-70
2023/07/27 03:31:49;;;;;;;6.70;3.92;;;;;;;13.94;76.25;100821.47;7398733;19;20687;-70
2023/07/27 03:34:18;;;;;;;8.02;4.15;;;;;;;13.93;76.01;100821.69;7396889;19;19918;-70
2023/07/27 03:36:47;;;;;;;7.57;3.95;;;;;;;13.89;76.10;100821.22;7397757;19;20367;-71
2023/07/27 03:39:15;;;;;;;9.43;4.43;;;;;;;13.89;76.14;100815.00;7399333;19;19931;-70
2023/07/27 03:41:46;;;;;;;7.03;4.22;;;;;;;13.91;76.36;100810.19;7399010;19;19932;-70
2023/07/27 03:44:15;;;;;;;7.63;4.25;;;;;;;13.92;76.04;100809.16;7397462;19;20691;-71
2023/07/27 03:46:43;;;;;;;7.38;3.70;;;;;;;13.95;76.10;100806.06;7403142;19;20361;-71
2023/07/27 03:49:12;;;;;;;5.80;3.60;;;;;;;13.98;76.16;100806.47;7404621;19;19951;-71
2023/07/27 03:51:40;;;;;;;7.10;3.42;;;;;;;14.02;76.30;100809.66;7405774;19;19932;-73
2023/07/27 03:54:09;;;;;;;6.97;3.50;;;;;;;14.03;76.04;100806.72;7405218;19;19927;-71
2023/07/27 03:56:38;;;;;;;7.20;4.18;;;;;;;14.00;75.84;100803.59;7405467;19;19935;-70
2023/07/27 03:59:09;;;;;;;8.43;3.45;;;;;;;13.97;75.88;100802.13;7403776;19;21561;-71
2023/07/27 04:01:37;;;;;;;9.25;4.47;;;;;;;13.94;75.86;100805.22;7404153;19;19927;-70
2023/07/27 04:04:06;;;;;;;7.88;3.95;;;;;;;13.92;76.05;100793.75;7405931;19;20385;-70
2023/07/27 04:06:36;;;;;;;6.43;3.88;;;;;;;13.92;76.01;100795.63;7404821;19;20354;-71
2023/07/27 04:09:04;;;;;;;6.63;4.18;;;;;;;13.91;75.94;100793.94;7405865;19;19922;-71
2023/07/27 04:11:35;;;;;;;6.97;3.83;;;;;;;13.90;75.82;100790.41;7404309;19;19914;-71
2023/07/27 04:14:03;;;;;;;6.75;3.30;;;;;;;13.90;75.55;100789.56;7404078;19;20287;-71
2023/07/27 04:16:36;;;;;;;6.75;4.03;;;;;;;13.90;76.10;100784.97;7403500;19;20298;-70
2023/07/27 04:19:04;;;;;;;6.32;3.40;;;;;;;13.90;75.51;100789.56;7404602;19;19923;-72
2023/07/27 04:21:33;;;;;;;7.95;3.35;;;;;;;13.91;75.50;100783.97;7402601;19;19922;-71
2023/07/27 04:24:02;;;;;;;4.75;3.13;;;;;;;13.92;75.55;100787.50;7404599;19;20270;-71
2023/07/27 04:26:31;;;;;;;6.88;3.78;;;;;;;13.93;75.85;100784.59;7404406;19;19922;-70
2023/07/27 04:29:00;;;;;;;6.43;3.97;;;;;;;13.95;76.23;100779.81;7403876;19;19923;-71
2023/07/27 04:31:29;;;;;;;8.00;4.10;;;;;;;14.01;75.90;100783.59;7404432;19;19919;-70
2023/07/27 04:34:00;;;;;;;6.10;3.65;;;;;;;14.04;75.83;100777.75;7404899;19;19945;-70
2023/07/27 04:36:28;;;;;;;6.15;3.90;;;;;;;14.05;75.88;100783.00;7403991;19;20003;-71
2023/07/27 04:38:57;;;;;;;5.85;3.95;;;;;;;14.04;76.03;100775.06;7402269;19;19922;-71
2023/07/27 04:41:25;;;;;;;6.78;3.72;;;;;;;14.04;76.53;100778.59;7402593;19;19922;-71
2023/07/27 04:43:57;;;;;;;7.97;4.18;;;;;;;14.03;76.46;100774.22;7403371;19;19939;-71
2023/07/27 04:46:25;;;;;;;;;;;;;;;13.88;79.26;100778.09;7405404;19;19974;-71
2023/07/27 04:48:54;;;;;;;7.68;4.20;;;;;;;13.98;76.75;100775.84;7401769;19;19947;-71
2023/07/27 04:51:25;;;;;;;6.25;4.40;;;;;;;14.01;77.40;100759.22;7402111;19;19930;-70
2023/07/27 04:53:54;;;;;;;7.93;3.72;;;;;;;14.03;77.10;100751.69;7400871;19;20007;-71
2023/07/27 04:56:23;;;;;;;6.50;3.92;;;;;;;14.03;77.63;100751.69;7401570;19;19922;-71
2023/07/27 04:58:52;;;;;;;7.22;3.85;;;;;;;14.08;78.03;100746.53;7401681;19;19931;-71
2023/07/27 05:01:20;;;;;;;9.90;4.43;;;;;;;14.12;77.22;100749.66;7396087;19;19927;-71
2023/07/27 05:03:49;;;;;;;7.85;4.57;;;;;;;14.13;77.89;100751.34;7403958;19;19919;-71
2023/07/27 05:06:17;;;;;;;6.65;4.10;;;;;;;14.14;77.67;100744.88;7404693;19;19915;-70
2023/07/27 05:08:49;;;;;;;5.50;3.40;;;;;;;14.16;77.91;100751.75;7402265;19;20306;-69
2023/07/27 05:11:17;;;;;;;6.53;3.70;;;;;;;14.18;77.67;100744.28;7400613;19;19927;-70
2023/07/27 05:14:06;;;;;;;8.30;4.10;;;;;;;14.20;78.43;100738.63;7400136;19;20344;-70
2023/07/27 05:16:34;;;;;;;8.23;3.97;;;;;;;14.24;78.27;100738.03;7402756;19;19923;-70
2023/07/27 05:19:03;;;;;;;6.57;4.30;;;;;;;14.25;78.71;100728.03;7399619;19;19945;-70
2023/07/27 05:21:31;;;;;;;12.10;4.32;;;;;;;14.23;78.68;100733.66;7400488;19;19961;-70
2023/07/27 05:24:03;;;;;;;7.03;4.68;;;;;;;14.24;79.15;100724.47;7403170;19;19919;-70
2023/07/27 05:26:32;;;;;;;8.45;4.68;;;;;;;14.25;79.47;100719.91;7402913;19;19922;-70
2023/07/27 05:29:01;;;;;;;8.20;3.90;;;;;;;14.30;79.33;100720.97;7402015;19;19959;-69
2023/07/27 05:31:29;;;;;;;7.50;4.50;;;;;;;14.31;79.48;100706.38;7401943;19;19949;-70
2023/07/27 05:33:58;;;;;;;7.78;4.25;;;;;;;14.34;79.42;100721.38;7401955;19;19935;-70
2023/07/27 05:36:26;;;;;;;6.55;4.35;;;;;;;14.32;79.36;100718.06;7403292;19;19926;-70
2023/07/27 05:38:55;;;;;;;9.93;4.07;;;;;;;14.30;80.34;100714.69;7401763;19;19943;-70
2023/07/27 05:41:26;;;;;;;7.53;4.40;;;;;;;14.30;80.31;100715.53;7400908;19;19929;-70
2023/07/27 05:43:54;;;;;;;7.28;4.80;;;;;;;14.30;80.37;100712.00;7401957;19;20004;-70
2023/07/27 05:46:23;;;;;;;6.50;3.85;;;;;;;14.30;80.58;100712.81;7400876;19;19943;-70
2023/07/27 05:48:52;;;;;;;9.23;4.20;;;;;;;14.32;80.17;100707.22;7401224;19;19926;-70
2023/07/27 05:51:20;;;;;;;7.82;4.20;;;;;;;14.30;80.53;100699.28;7400703;19;19938;-70
2023/07/27 05:53:49;;;;;;;5.68;3.35;;;;;;;14.27;80.90;100707.81;7399569;19;19991;-71
2023/07/27 05:56:17;;;;;;;7.38;4.18;;;;;;;14.27;80.88;100694.28;7400402;19;19922;-70
2023/07/27 05:58:49;;;;;;;5.18;3.75;;;;;;;14.30;81.39;100693.03;7397029;19;20272;-70
2023/07/27 06:01:17;;;;;;;6.35;3.75;;;;;;;14.33;80.89;100698.84;7399693;19;19953;-70
2023/07/27 06:03:46;;;;;;;8.57;4.05;;;;;;;14.36;81.28;100686.81;7402036;19;20325;-70
2023/07/27 06:06:15;;;;;;;8.45;4.40;;;;;;;14.36;81.50;100690.38;7401012;19;20559;-70
2023/07/27 06:08:43;;;;;;;7.28;3.97;;;;;;;14.40;81.37;100697.06;7402352;19;19927;-71
2023/07/27 06:11:13;;;;;;;7.18;3.83;;;;;;;14.42;81.51;100697.66;7402462;19;20345;-70
2023/07/27 06:13:41;;;;;;;6.22;4.30;;;;;;;14.45;81.88;100691.00;7397117;19;20391;-70
2023/07/27 06:16:12;;;;;;;7.07;4.13;;;;;;;14.45;81.66;100691.81;7397062;19;19926;-76
2023/07/27 06:18:41;;;;;;;7.78;3.80;;;;;;;14.45;81.60;100691.00;7401691;19;19951;-76
2023/07/27 06:21:10;;;;;;;7.90;4.18;;;;;;;14.47;82.16;100686.19;7401134;19;20001;-76
2023/07/27 06:23:38;;;;;;;6.18;3.65;;;;;;;14.51;81.73;100688.28;7406108;19;19938;-71
2023/07/27 06:26:07;;;;;;;6.75;3.60;;;;;;;14.57;81.58;100688.50;7394778;19;19926;-71
2023/07/27 06:28:36;;;;;;;6.22;3.40;;;;;;;14.63;82.19;100682.25;7400296;19;20270;-71
2023/07/27 06:31:05;;;;;;;7.35;3.95;;;;;;;14.66;82.11;100673.72;7395629;19;19934;-70
2023/07/27 06:33:36;;;;;;;5.05;3.50;;;;;;;14.70;82.22;100670.38;7399534;19;20379;-71
2023/07/27 06:36:06;;;;;;;6.13;3.65;;;;;;;14.78;81.74;100666.63;7399402;19;20555;-71
2023/07/27 06:38:35;;;;;;;7.28;3.83;;;;;;;14.87;82.52;100659.94;7398636;19;19922;-70
2023/07/27 06:41:03;;;;;;;7.43;3.88;;;;;;;14.95;81.78;100657.00;7398053;19;19923;-71
2023/07/27 06:43:52;;;;;;;6.28;3.40;;;;;;;15.01;82.27;100644.47;7394364;19;19982;-71
2023/07/27 06:46:21;;;;;;;7.05;3.88;;;;;;;15.10;82.00;100652.16;7383530;19;20313;-70
2023/07/27 06:48:52;;;;;;;6.60;3.92;;;;;;;15.17;81.59;100644.84;7381616;19;19990;-71
2023/07/27 06:51:23;;;;;;;5.57;3.60;;;;;;;15.22;81.44;100649.66;7384857;19;19926;-71
2023/07/27 06:53:52;;;;;;;5.20;3.78;;;;;;;15.25;81.12;100644.63;7388930;19;19930;-70
2023/07/27 06:56:20;;;;;;;6.45;4.18;;;;;;;15.30;81.44;100636.69;7391293;19;19926;-71
2023/07/27 06:58:49;;;;;;;8.98;3.85;;;;;;;15.34;81.17;100631.66;7389595;19;19990;-70
2023/07/27 07:01:17;;;;;;;5.68;4.00;;;;;;;15.36;81.39;100630.38;7398809;19;19921;-70
2023/07/27 07:03:46;;;;;;;7.03;4.10;;;;;;;15.37;81.59;100631.22;7393747;19;19930;-70
2023/07/27 07:06:17;;;;;;;8.73;3.92;;;;;;;15.42;81.47;100634.13;7391281;19;19943;-70
2023/07/27 07:08:46;;;;;;;9.10;4.35;;;;;;;15.44;80.97;100632.84;7394386;19;19929;-71
2023/07/27 07:11:14;;;;;;;5.88;3.95;;;;;;;15.51;80.58;100629.31;7400884;19;20401;-70
2023/07/27 07:13:43;;;;;;;8.48;4.55;;;;;;;15.56;80.67;100621.38;7399896;19;20262;-71
2023/07/27 07:16:11;;;;;;;7.38;4.60;;;;;;;15.58;80.78;100630.97;7389377;19;19926;-71
2023/07/27 07:18:40;;;;;;;7.20;4.82;;;;;;;15.62;80.96;100628.69;7388807;19;20668;-71
2023/07/27 07:21:08;;;;;;;6.45;4.75;;;;;;;15.64;80.35;100624.69;7383147;19;19949;-71
2023/07/27 07:23:40;;;;;;;7.88;5.32;;;;;;;15.66;80.81;100627.19;7392272;19;20525;-71
2023/07/27 07:26:08;;;;;;;;;;;;;;;15.53;81.93;100619.94;7392402;19;19990;-71
2023/07/27 07:28:38;;;;;;;8.40;4.47;;;;;;;15.63;80.63;100620.28;7391979;19;19922;-71
2023/07/27 07:31:06;;;;;;;7.38;4.70;;;;;;;15.66;80.76;100616.31;7393815;19;20376;-70
2023/07/27 07:33:35;;;;;;;8.80;4.63;;;;;;;15.62;80.71;100618.63;7396672;19;19918;-71
2023/07/27 07:36:03;;;;;;;6.80;3.65;;;;;;;15.62;81.17;100620.53;7390437;19;19918;-70
2023/07/27 07:38:32;;;;;;;7.82;3.70;;;;;;;15.62;80.79;100620.53;7388465;19;20297;-71
2023/07/27 07:41:03;;;;;;;6.43;4.70;;;;;;;15.57;81.26;100614.91;7386533;19;19963;-71
2023/07/27 07:43:32;;;;;;;8.57;4.68;;;;;;;15.58;80.73;100616.53;7372164;19;19947;-71
2023/07/27 07:46:00;;;;;;;6.10;4.40;;;;;;;15.56;81.00;100603.22;7376753;19;19933;-70
2023/07/27 07:48:29;;;;;;;7.38;4.18;;;;;;;15.55;81.12;100601.53;7390151;19;19935;-71
2023/07/27 07:50:57;;;;;;;7.00;4.10;;;;;;;15.57;81.54;100602.16;7385655;19;19955;-71
2023/07/27 07:53:26;;;;;;;8.18;4.50;;;;;;;15.57;80.96;100590.47;7381525;19;19970;-71
2023/07/27 07:55:55;;;;;;;7.35;4.43;;;;;;;15.57;81.21;100582.31;7378028;19;19926;-71
2023/07/27 07:58:26;;;;;;;8.05;4.05;;;;;;;15.59;81.41;100577.50;7387927;19;19931;-70
2023/07/27 08:00:54;;;;;;;5.00;3.40;;;;;;;15.61;80.97;100580.84;7389143;19;19947;-70
2023/07/27 08:03:23;;;;;;;5.28;3.58;;;;;;;15.70;80.98;100560.53;7389153;19;20034;-70
2023/07/27 08:05:52;;;;;;;6.30;3.60;;;;;;;15.79;80.55;100559.22;7398635;19;19926;-70
2023/07/27 08:08:20;;;;;;;7.07;3.55;;;;;;;15.84;80.10;100553.94;7386340;19;19935;-70
2023/07/27 08:10:49;;;;;;;4.82;3.60;;;;;;;15.88;80.61;100549.72;7393098;19;20364;-70
2023/07/27 08:13:17;;;;;;;5.97;3.10;;;;;;;15.93;80.44;100552.63;7394224;19;19926;-71
2023/07/27 08:15:55;;;;;;;5.95;3.30;;;;;;;15.99;81.45;100546.31;7393203;19;20192;-71
2023/07/27 08:18:24;;;;;;;5.97;3.33;;;;;;;16.08;80.09;100549.59;7373255;19;19923;-71
2023/07/27 08:21:03;;;;;;;5.18;3.30;;;;;;;16.04;80.91;100551.09;7376358;19;19966;-70
2023/07/27 08:23:32;;;;;;;4.85;2.97;;;;;;;16.07;80.55;100529.75;7395627;19;19932;-71
2023/07/27 08:26:04;;;;;;;4.72;3.00;;;;;;;16.13;80.54;100547.06;7393937;19;19930;-71
2023/07/27 08:28:32;;;;;;;4.43;2.80;;;;;;;16.16;80.73;100530.31;7392917;19;19961;-71
2023/07/27 08:31:05;;;;;;;3.65;2.40;;;;;;;16.12;80.52;100526.38;7396339;19;20277;-70
2023/07/27 08:33:34;;;;;;;;;;;;;;;15.95;82.04;100533.41;7404213;19;19918;-71
2023/07/27 08:36:03;;;;;;;3.35;2.65;;;;;;;16.01;81.20;100533.34;7404589;19;20979;-71
2023/07/27 08:38:33;;;;;;;3.13;2.70;;;;;;;16.03;81.12;100535.84;7404217;19;19927;-71
2023/07/27 08:41:03;;;;;;;3.92;2.80;;;;;;;16.03;81.52;100528.53;7401332;19;19926;-71
2023/07/27 08:43:32;;;;;;;4.47;3.25;;;;;;;16.00;81.72;100522.72;7398796;19;19963;-71
2023/07/27 08:46:04;;;;;;;7.13;3.20;;;;;;;16.00;80.95;100520.84;7399237;19;19926;-71
2023/07/27 08:48:34;;;;;;;4.05;3.38;;;;;;;16.01;81.81;100519.75;7399509;19;19930;-71
2023/07/27 08:51:03;;;;;;;5.40;3.83;;;;;;;16.04;81.78;100516.63;7393002;19;19923;-75
2023/07/27 08:53:32;;;;;;;4.65;3.60;;;;;;;16.03;81.84;100511.38;7405678;19;19922;-75
2023/07/27 08:56:01;;;;;;;4.38;3.30;;;;;;;16.04;82.14;100507.63;7406834;19;20306;-75
2023/07/27 08:58:31;;;;;;;6.18;4.18;;;;;;;16.07;81.50;100502.56;7405966;19;19943;-77
2023/07/27 09:00:59;;;;;;;5.13;3.90;;;;;;;16.04;82.01;100497.59;7405988;19;19918;-76
2023/07/27 09:03:31;;;;;;;4.55;3.85;;;;;;;16.08;82.02;100506.13;7396068;19;20357;-75
2023/07/27 09:06:02;;;;;;;5.03;4.00;;;;;;;16.09;82.08;100499.66;7400629;19;19922;-74
2023/07/27 09:08:32;;;;;;;4.13;3.50;;;;;;;16.10;81.43;100501.28;7398311;19;19998;-75
2023/07/27 09:11:07;;;;;;;5.05;3.55;;;;;;;16.08;81.65;100498.81;7404440;19;19963;-75
2023/07/27 09:13:36;;;;;;;8.10;4.70;;;;;;;16.10;81.70;100504.84;7402685;19;19922;-74
2023/07/27 09:16:08;;;;;;;4.85;3.58;;;;;;;16.15;82.05;100501.47;7403173;19;19926;-75
2023/07/27 09:18:40;;;;;;;8.43;4.50;;;;;;;16.18;82.67;100496.41;7396755;19;19915;-76
2023/07/27 09:21:12;;;;;;;4.43;3.88;;;;;;;16.20;82.28;100491.59;7400182;19;20261;-75
2023/07/27 09:23:41;;;;;;;3.60;3.30;;;;;;;16.23;81.81;100484.88;7402760;19;19926;-76
2023/07/27 09:26:10;;;;;;;5.07;3.72;;;;;;;16.20;81.74;100480.72;7400541;19;19919;-76
2023/07/27 09:28:38;;;;;;;3.92;3.10;;;;;;;16.18;81.90;100482.81;7404403;19;19943;-76
2023/07/27 09:31:08;;;;;;;3.75;3.35;;;;;;;16.12;82.04;100478.28;7406343;19;19918;-77
2023/07/27 09:33:39;;;;;;;4.00;3.05;;;;;;;16.11;82.76;100471.19;7400992;19;19926;-75
2023/07/27 09:36:08;;;;;;;4.43;2.95;;;;;;;16.10;82.42;100474.13;7401675;19;19926;-71
2023/07/27 09:38:36;;;;;;;4.07;3.67;;;;;;;16.07;82.76;100469.13;7394326;19;19936;-80
2023/07/27 09:41:11;;;;;;;4.50;3.05;;;;;;;16.11;81.62;100467.63;7400133;19;20246;-78
2023/07/27 09:43:41;;;;;;;8.77;3.15;;;;;;;16.19;81.37;100467.34;7399451;19;20277;-78
2023/07/27 09:46:09;;;;;;;4.93;2.42;;;;;;;16.25;81.72;100469.19;7403386;19;20278;-78
2023/07/27 09:48:41;;;;;;;4.65;2.75;;;;;;;16.30;81.67;100470.19;7402056;19;19985;-78
2023/07/27 09:51:11;;;;;;;3.70;3.35;;;;;;;16.40;81.35;100469.63;7403551;19;19982;-79
2023/07/27 09:53:44;;;;;;;4.95;2.67;;;;;;;16.48;80.95;100465.81;7399866;19;20641;-78
2023/07/27 09:56:13;;;;;;;2.90;2.60;;;;;;;16.57;81.13;100461.72;7401970;19;19951;-77
2023/07/27 09:58:43;;;;;;;5.00;3.13;;;;;;;16.63;80.61;100460.88;7403495;19;19939;-77
2023/07/27 10:01:12;;;;;;;4.47;2.60;;;;;;;16.64;80.86;100457.94;7396536;19;19918;-78
2023/07/27 10:03:45;;;;;;;3.65;2.63;;;;;;;16.69;80.57;100462.69;7394540;19;19922;-77
2023/07/27 10:06:14;;;;;;;3.22;2.40;;;;;;;16.76;80.30;100458.81;7400210;19;20022;-89
2023/07/27 10:08:45;;;;;;;5.60;2.90;;;;;;;16.84;79.74;100463.13;7404141;19;19943;-81
2023/07/27 10:11:14;;;;;;;5.50;2.42;;;;;;;16.88;80.13;100460.78;7399564;19;20374;-81
2023/07/27 10:13:46;;;;;;;3.42;2.28;;;;;;;16.89;79.61;100460.56;7397049;19;19926;-87
2023/07/27 10:16:22;;;;;;;2.55;1.95;;;;;;;16.85;79.84;100462.06;7400213;19;19923;-77
2023/07/27 10:18:55;;;;;;;5.18;2.60;;;;;;;16.86;80.29;100460.19;7402194;19;19925;-78
2023/07/27 10:21:28;;;;;;;2.45;2.08;;;;;;;16.84;79.99;100454.97;7398495;19;19939;-78
2023/07/27 10:23:59;;;;;;;2.72;1.98;;;;;;;16.88;79.79;100456.16;7400830;19;19919;-79
2023/07/27 10:26:50;;;;;;;2.38;1.85;;;;;;;16.92;79.77;100454.66;7399038;19;19925;-79
2023/07/27 10:29:20;;;;;;;2.47;1.90;;;;;;;16.99;79.36;100447.25;7401197;19;19922;-78
2023/07/27 10:32:03;;;;;;;2.50;2.00;;;;;;;16.90;79.73;100456.78;7402192;19;19919;-76
2023/07/27 10:34:36;;;;;;;2.22;2.03;;;;;;;16.93;79.76;100453.59;7401552;19;20566;-79
2023/07/27 10:37:06;;;;;;;1.88;1.40;;;;;;;16.97;80.01;100437.63;7400887;19;19951;-78
2023/07/27 10:39:36;;;;;;;2.30;1.90;;;;;;;17.05;79.84;100445.47;7401857;19;19918;-78
2023/07/27 10:42:08;;;;;;;1.50;1.40;;;;;;;17.15;79.79;100443.06;7400427;19;19923;-81
2023/07/27 10:44:48;;;;;;;3.20;2.33;;;;;;;17.22;80.60;100441.06;7397002;19;19927;-80
2023/07/27 10:47:18;;;;;;;2.30;1.60;;;;;;;17.32;80.08;100433.16;7399987;19;19922;-80
2023/07/27 10:49:51;;;;;;;1.60;1.40;;;;;;;17.46;80.01;100433.81;7401612;19;20622;-84
2023/07/27 10:52:22;;;;;;;1.88;1.60;;;;;;;17.50;80.23;100432.28;7385019;19;19922;-73
2023/07/27 10:54:52;;;;;;;2.70;1.30;;;;;;;17.48;79.98;100428.94;7385460;19;20595;-72
2023/07/27 10:57:22;;;;;;;1.50;1.40;;;;;;;17.41;81.01;100433.66;7392387;19;20010;-72
2023/07/27 10:59:52;;;;;;;1.33;1.10;;;;;;;17.37;80.86;100427.03;7377317;19;19923;-72
2023/07/27 11:02:23;;;;;;;2.38;1.60;;;;;;;17.28;81.31;100425.69;7385891;19;19927;-73
2023/07/27 11:04:56;;;;;;;1.30;1.20;;;;;;;17.18;81.68;100423.53;7396217;19;19919;-72
2023/07/27 11:07:29;;;;;;;1.67;1.52;;;;;;;17.08;82.03;100421.38;7397249;19;19951;-71
2023/07/27 11:09:58;;;;;;;2.55;1.30;;;;;;;17.03;82.02;100410.34;7401582;19;20408;-72
2023/07/27 11:12:27;;;;;;;1.60;1.50;;;;;;;16.98;82.65;100417.53;7399024;19;19939;-72
2023/07/27 11:14:55;;;;;;;1.60;1.50;;;;;;;16.96;82.77;100415.03;7399279;19;19934;-73
2023/07/27 11:17:25;;;;;;;1.85;1.35;;;;;;;16.94;82.47;100409.00;7400365;19;19938;-72
2023/07/27 11:19:56;;;;;;;1.15;1.05;;;;;;;16.89;82.73;100402.59;7400116;19;19926;-72
2023/07/27 11:22:26;;;;;;;1.50;1.40;;;;;;;16.86;82.68;100411.22;7396806;19;20361;-72
2023/07/27 11:24:54;;;;;;;1.85;1.73;;;;;;;16.87;83.39;100402.81;7397286;19;19935;-72
2023/07/27 11:27:24;;;;;;;2.55;1.58;;;;;;;16.85;83.15;100399.50;7400200;19;19947;-72
2023/07/27 11:29:52;;;;;;;2.15;1.35;;;;;;;16.83;83.15;100396.16;7400531;19;20365;-72
2023/07/27 11:32:27;;;;;;;1.55;1.45;;;;;;;16.82;83.65;100401.84;7400356;19;19915;-72
2023/07/27 11:34:59;;;;;;;1.77;1.60;;;;;;;16.81;83.69;100401.00;7399012;19;19955;-72
2023/07/27 11:37:29;;;;;;;2.05;1.90;;;;;;;16.78;83.72;100399.56;7399224;19;19947;-72
2023/07/27 11:39:58;;;;;;;1.67;1.40;;;;;;;16.75;84.78;100397.31;7399590;19;20591;-72